Time;durP1;ratioP1;P1;durP2;ratioP2;P2;SDS_P1;SDS_P2;PMS_P1;PMS_P2;Temp;Humidity;BMP_temperature;BMP_pressure;BME280_temperature;BME280_humidity;BME280_pressure;Samples;Min_cycle;Max_cycle;Signal;HPM_P1;HPM_P2
2023/05/11 00:02:23;;;;;;;4.13;2.03;;;14.10;99.50;;;;;;20921489;28;20272;-75
2023/05/11 00:12:25;;;;;;;4.87;1.70;;;14.10;99.30;;;;;;20920223;28;20248;-74
2023/05/11 00:22:26;;;;;;;2.57;2.00;;;14.00;99.20;;;;;;20920264;28;20211;-76
2023/05/11 00:32:28;;;;;;;9.83;2.00;;;13.90;99.00;;;;;;20919007;28;20224;-75
2023/05/11 00:42:30;;;;;;;5.33;1.80;;;13.60;98.90;;;;;;20917051;28;20304;-72
2023/05/11 00:52:32;;;;;;;5.80;2.17;;;13.60;99.20;;;;;;20917672;28;20231;-74
2023/05/11 01:02:34;;;;;;;4.07;2.00;;;13.50;99.20;;;;;;20916599;28;20204;-72
2023/05/11 01:12:45;;;;;;;2.27;1.90;;;13.50;99.40;;;;;;20915661;28;20262;-72
2023/05/11 01:23:05;;;;;;;4.27;2.00;;;13.60;99.50;;;;;;20914992;28;20208;-70
2023/05/11 01:33:11;;;;;;;2.67;1.90;;;13.60;99.40;;;;;;20914416;28;20235;-77
2023/05/11 01:43:19;;;;;;;2.43;1.80;;;13.50;99.60;;;;;;20913763;28;20211;-77
2023/05/11 01:53:22;;;;;;;2.40;1.73;;;13.50;99.60;;;;;;20913559;28;20638;-76
2023/05/11 02:03:25;;;;;;;3.50;1.90;;;13.60;99.70;;;;;;20912837;28;20573;-77
2023/05/11 02:13:28;;;;;;;5.10;2.00;;;13.60;99.80;;;;;;20912034;28;20243;-77
2023/05/11 02:23:31;;;;;;;2.57;1.90;;;13.60;99.70;;;;;;20912024;28;20212;-76
2023/05/11 02:33:43;;;;;;;2.40;1.70;;;13.50;99.60;;;;;;20911748;28;20697;-76
2023/05/11 02:43:48;;;;;;;3.93;1.90;;;13.50;99.80;;;;;;20911231;28;20261;-77
2023/05/11 02:53:53;;;;;;;1.93;1.70;;;13.40;99.70;;;;;;20910832;28;20287;-77
2023/05/11 03:03:55;;;;;;;5.33;1.83;;;13.40;99.70;;;;;;20919465;28;20605;-76
2023/05/11 03:13:58;;;;;;;3.73;1.80;;;13.50;99.70;;;;;;20926514;28;20369;-77
2023/05/11 03:24:00;;;;;;;3.00;1.80;;;13.40;99.50;;;;;;20925934;28;20213;-77
2023/05/11 03:34:02;;;;;;;2.40;1.57;;;13.50;99.30;;;;;;20923284;28;20246;-76
2023/05/11 03:44:07;;;;;;;3.97;1.80;;;13.40;99.00;;;;;;20922759;28;20610;-76
2023/05/11 03:54:09;;;;;;;8.60;2.13;;;13.50;99.10;;;;;;20922361;28;20232;-76
2023/05/11 04:04:11;;;;;;;6.03;2.00;;;13.50;99.00;;;;;;20921485;28;20215;-77
2023/05/11 04:14:13;;;;;;;2.10;1.90;;;13.40;98.90;;;;;;20920398;28;20252;-76
2023/05/11 04:24:14;;;;;;;6.20;3.33;;;13.50;99.00;;;;;;20920123;28;20273;-71
2023/05/11 04:34:16;;;;;;;5.17;2.20;;;13.50;98.90;;;;;;20918712;28;20293;-71
2023/05/11 04:44:17;;;;;;;7.00;2.10;;;13.60;99.20;;;;;;20918208;28;20584;-76
2023/05/11 04:54:19;;;;;;;3.80;2.00;;;13.70;99.20;;;;;;20917092;28;20238;-77
2023/05/11 05:04:21;;;;;;;5.63;1.90;;;13.80;99.00;;;;;;20915595;28;20204;-76
2023/05/11 05:14:22;;;;;;;3.40;2.17;;;13.80;98.80;;;;;;20915187;28;20707;-78
2023/05/11 05:24:24;;;;;;;3.10;2.10;;;14.00;98.60;;;;;;20914439;28;20266;-77
2023/05/11 05:34:26;;;;;;;5.13;2.83;;;14.10;98.30;;;;;;20913857;28;20235;-76
2023/05/11 05:44:27;;;;;;;7.80;1.93;;;14.20;97.80;;;;;;20912406;28;20711;-75
2023/05/11 05:54:30;;;;;;;9.87;2.20;;;14.30;98.00;;;;;;20911388;28;20240;-75
2023/05/11 06:04:31;;;;;;;9.20;2.43;;;14.30;97.70;;;;;;20910494;28;20260;-73
2023/05/11 06:14:33;;;;;;;5.83;2.37;;;14.50;97.10;;;;;;20910168;28;20664;-70
2023/05/11 06:24:35;;;;;;;2.33;2.00;;;14.60;96.90;;;;;;20908988;28;20204;-76
2023/05/11 06:34:38;;;;;;;6.33;1.70;;;14.60;97.00;;;;;;20911244;28;20238;-72
2023/05/11 06:44:40;;;;;;;4.40;1.50;;;14.70;95.90;;;;;;20925794;28;20232;-75
2023/05/11 06:54:42;;;;;;;2.37;1.40;;;14.80;96.00;;;;;;20924783;28;20735;-74
2023/05/11 07:04:43;;;;;;;2.83;1.60;;;14.70;95.40;;;;;;20923624;28;20238;-75
2023/05/11 07:14:45;;;;;;;2.30;1.60;;;14.80;95.20;;;;;;20923656;28;20237;-75
2023/05/11 07:24:47;;;;;;;2.37;1.50;;;14.70;94.80;;;;;;20922640;28;20728;-75
2023/05/11 07:34:49;;;;;;;3.97;1.70;;;14.90;94.70;;;;;;20923340;28;20634;-76
2023/05/11 07:44:50;;;;;;;4.50;1.50;;;15.00;94.20;;;;;;20921671;28;20349;-75
2023/05/11 07:54:52;;;;;;;1.70;1.53;;;15.00;94.10;;;;;;20921098;28;20288;-75
2023/05/11 08:04:53;;;;;;;2.03;1.40;;;15.10;93.90;;;;;;20920808;28;20203;-74
2023/05/11 08:14:55;;;;;;;5.00;1.50;;;15.20;93.80;;;;;;20918085;28;20760;-75
2023/05/11 08:24:57;;;;;;;3.00;1.43;;;15.20;94.10;;;;;;20917805;28;20214;-76
2023/05/11 08:34:59;;;;;;;5.20;1.70;;;15.30;94.50;;;;;;20917840;28;20239;-76
2023/05/11 08:45:01;;;;;;;4.00;1.53;;;15.30;95.00;;;;;;20917145;28;20618;-68
2023/05/11 08:55:03;;;;;;;12.87;7.13;;;15.60;94.80;;;;;;20916453;28;20240;-73
2023/05/11 09:05:05;;;;;;;3.30;1.70;;;15.70;95.10;;;;;;20914507;28;20277;-70
2023/05/11 09:15:07;;;;;;;6.83;4.10;;;15.90;94.70;;;;;;20914719;28;20343;-71
2023/05/11 09:25:14;;;;;;;3.67;2.10;;;16.00;94.70;;;;;;20914250;28;20204;-71
2023/05/11 09:35:20;;;;;;;6.80;1.57;;;16.40;94.60;;;;;;20913785;28;20234;-73
2023/05/11 09:45:42;;;;;;;2.30;1.90;;;16.50;94.90;;;;;;20912909;28;20208;-69
2023/05/11 09:55:54;;;;;;;2.97;1.90;;;16.70;94.80;;;;;;20912111;28;20716;-68
2023/05/11 10:05:58;;;;;;;2.50;2.10;;;17.00;95.00;;;;;;20911809;28;20294;-68
2023/05/11 10:16:04;;;;;;;4.60;2.00;;;16.90;94.20;;;;;;20910973;28;20792;-73
2023/05/11 10:26:06;;;;;;;4.07;1.70;;;17.00;94.80;;;;;;20910185;28;20620;-70
2023/05/11 10:36:08;;;;;;;4.70;3.97;;;17.00;94.60;;;;;;20911359;28;20240;-72
2023/05/11 10:46:39;;;;;;;5.83;2.17;;;16.70;94.70;;;;;;20910506;28;20242;-75
2023/05/11 10:57:13;;;;;;;3.90;2.00;;;16.40;95.50;;;;;;20908029;28;20242;-69
2023/05/11 11:07:17;;;;;;;4.40;3.30;;;16.30;95.90;;;;;;20908298;28;20217;-74
2023/05/11 11:17:19;;;;;;;3.27;2.30;;;16.10;96.10;;;;;;20908449;28;20348;-73
2023/05/11 11:27:43;;;;;;;4.90;3.20;;;16.10;96.70;;;;;;20919494;28;20614;-70
2023/05/11 11:38:04;;;;;;;3.33;2.50;;;16.30;97.00;;;;;;20922749;28;20232;-69
2023/05/11 11:48:07;;;;;;;3.03;2.40;;;16.50;96.90;;;;;;20922793;28;20296;-70
2023/05/11 11:58:09;;;;;;;3.70;2.03;;;16.50;97.10;;;;;;20920691;28;20236;-69
2023/05/11 12:08:14;;;;;;;4.33;2.30;;;16.40;97.00;;;;;;20920008;28;20257;-77
2023/05/11 12:18:22;;;;;;;2.97;2.00;;;16.70;97.20;;;;;;20920613;28;20237;-79
2023/05/11 12:28:24;;;;;;;2.90;1.70;;;16.50;96.80;;;;;;20917549;28;20213;-76
2023/05/11 12:38:26;;;;;;;3.07;1.70;;;16.90;96.60;;;;;;20912001;28;20638;-74
2023/05/11 12:48:29;;;;;;;2.93;1.87;;;17.30;96.00;;;;;;20913497;28;20654;-74
2023/05/11 12:58:38;;;;;;;2.90;1.80;;;17.20;95.30;;;;;;20917590;28;20265;-76
2023/05/11 13:08:45;;;;;;;2.00;1.70;;;16.80;95.80;;;;;;20924502;28;20210;-79
2023/05/11 13:19:00;;;;;;;4.10;1.90;;;16.60;96.10;;;;;;20914355;28;20330;-78
2023/05/11 13:29:02;;;;;;;4.43;1.87;;;16.40;96.00;;;;;;20912424;28;20211;-76
2023/05/11 13:39:12;;;;;;;6.37;2.03;;;16.20;96.80;;;;;;20912179;28;20236;-73
2023/05/11 13:49:13;;;;;;;2.90;2.00;;;16.10;97.00;;;;;;20900927;28;20215;-75
2023/05/11 13:59:15;;;;;;;2.20;2.00;;;15.90;97.30;;;;;;20941207;28;20233;-74
2023/05/11 14:09:17;;;;;;;2.90;2.17;;;16.00;98.00;;;;;;20959141;28;20602;-73
2023/05/11 14:19:18;;;;;;;2.63;2.03;;;16.20;98.20;;;;;;20944140;28;20236;-79
2023/05/11 14:29:20;;;;;;;2.70;2.50;;;16.20;98.40;;;;;;20913423;28;20637;-76
2023/05/11 14:39:22;;;;;;;3.73;2.43;;;16.20;98.70;;;;;;20935950;28;20243;-76
2023/05/11 14:49:24;;;;;;;5.70;2.50;;;16.10;98.80;;;;;;20955658;28;20652;-77
2023/05/11 14:59:26;;;;;;;5.23;3.37;;;16.00;99.20;;;;;;20939006;28;20236;-77
2023/05/11 15:09:28;;;;;;;3.77;2.70;;;16.00;99.30;;;;;;20950160;28;20302;-76
2023/05/11 15:19:30;;;;;;;4.53;2.97;;;15.80;99.80;;;;;;20958284;28;20246;-75
2023/05/11 15:29:32;;;;;;;4.33;2.70;;;15.80;99.90;;;;;;20958635;28;20273;-75
2023/05/11 15:39:35;;;;;;;3.40;3.07;;;15.70;99.90;;;;;;20891811;28;21517;-76
2023/05/11 15:49:37;;;;;;;3.87;2.80;;;15.60;99.90;;;;;;20885985;28;20733;-76
2023/05/11 15:59:39;;;;;;;5.03;3.07;;;15.50;99.90;;;;;;20881068;28;20243;-72
2023/05/11 16:09:40;;;;;;;4.57;3.53;;;15.50;99.90;;;;;;20888425;28;20262;-73
2023/05/11 16:19:42;;;;;;;4.70;3.60;;;15.50;99.90;;;;;;20900956;28;20654;-75
2023/05/11 16:29:44;;;;;;;4.30;3.70;;;15.60;99.90;;;;;;20889824;28;20223;-71
2023/05/11 16:39:46;;;;;;;4.40;3.10;;;15.50;99.90;;;;;;20897439;28;20293;-72
2023/05/11 16:49:47;;;;;;;6.43;3.70;;;15.60;99.90;;;;;;20881202;28;20213;-72
2023/05/11 16:59:50;;;;;;;4.20;3.37;;;15.40;99.90;;;;;;20887995;28;20232;-75
2023/05/11 17:09:55;;;;;;;4.10;3.70;;;15.40;99.90;;;;;;20871348;28;20254;-85
2023/05/11 17:19:57;;;;;;;5.97;3.83;;;15.40;99.90;;;;;;20884942;28;20235;-83
2023/05/11 17:29:59;;;;;;;5.40;3.77;;;15.30;99.90;;;;;;20893672;28;20203;-85
2023/05/11 17:40:01;;;;;;;4.30;3.37;;;15.30;99.90;;;;;;20880268;28;20243;-85
2023/05/11 17:50:03;;;;;;;4.33;3.60;;;15.30;99.90;;;;;;20899428;28;20207;-75
2023/05/11 18:00:07;;;;;;;4.57;3.47;;;15.20;99.90;;;;;;20884831;28;20587;-74
2023/05/11 18:10:09;;;;;;;5.80;3.70;;;15.20;99.90;;;;;;20830199;28;20273;-73
2023/05/11 18:20:11;;;;;;;4.87;3.80;;;15.10;99.90;;;;;;20830063;28;20251;-71
2023/05/11 18:30:13;;;;;;;6.07;3.80;;;14.90;99.90;;;;;;20831788;28;20210;-76
2023/05/11 18:40:15;;;;;;;4.20;3.80;;;14.80;99.90;;;;;;20868560;28;20686;-70
2023/05/11 18:50:17;;;;;;;4.97;3.40;;;14.70;99.90;;;;;;20974951;28;20203;-73
2023/05/11 19:00:19;;;;;;;6.43;4.10;;;14.70;99.90;;;;;;20957292;28;20246;-72
2023/05/11 19:10:23;;;;;;;6.90;3.50;;;14.60;99.90;;;;;;20889686;28;20198;-75
2023/05/11 19:20:25;;;;;;;6.97;2.90;;;14.60;99.90;;;;;;20879942;28;20240;-72
2023/05/11 19:30:26;;;;;;;4.67;3.30;;;14.50;99.90;;;;;;20882776;28;20217;-70
2023/05/11 19:40:28;;;;;;;5.60;4.00;;;14.40;99.90;;;;;;20879720;28;20236;-71
2023/05/11 19:50:33;;;;;;;9.23;3.90;;;14.40;99.90;;;;;;20881422;28;20212;-72
2023/05/11 20:00:35;;;;;;;5.00;3.63;;;14.40;99.90;;;;;;20881875;28;20354;-70
2023/05/11 20:10:37;;;;;;;4.50;3.40;;;14.50;99.90;;;;;;20877651;28;20226;-70
2023/05/11 20:20:39;;;;;;;4.00;3.60;;;14.50;99.90;;;;;;20875782;28;20239;-68
2023/05/11 20:30:41;;;;;;;5.60;4.13;;;14.50;99.90;;;;;;20880226;28;20613;-68
2023/05/11 20:40:43;;;;;;;5.93;3.30;;;14.50;99.90;;;;;;20875286;28;20235;-68
2023/05/11 20:50:49;;;;;;;3.80;3.00;;;14.50;99.90;;;;;;20875493;28;20695;-70
2023/05/11 21:00:51;;;;;;;4.53;3.03;;;14.50;99.90;;;;;;20877920;28;20697;-68
2023/05/11 21:10:53;;;;;;;2.63;2.30;;;14.40;99.90;;;;;;20873316;28;20653;-75
2023/05/11 21:20:54;;;;;;;4.53;3.43;;;14.40;99.90;;;;;;20871662;28;20306;-70
2023/05/11 21:30:56;;;;;;;5.53;3.10;;;14.40;99.90;;;;;;20878117;28;20266;-69
2023/05/11 21:40:58;;;;;;;4.10;3.27;;;14.40;99.90;;;;;;20842920;28;20290;-69
2023/05/11 21:51:00;;;;;;;2.40;2.20;;;14.40;99.90;;;;;;20829325;28;20279;-69
2023/05/11 22:01:01;;;;;;;2.13;1.60;;;14.40;99.90;;;;;;20830808;28;20282;-69
2023/05/11 22:11:03;;;;;;;2.03;1.70;;;14.20;99.90;;;;;;20830064;28;20211;-69
2023/05/11 22:21:05;;;;;;;5.27;2.93;;;14.20;99.90;;;;;;20830143;28;20654;-70
2023/05/11 22:31:07;;;;;;;4.53;3.50;;;14.20;99.90;;;;;;20829632;28;20208;-69
2023/05/11 22:41:09;;;;;;;3.57;3.03;;;14.10;99.90;;;;;;20829155;28;20236;-69
2023/05/11 22:51:11;;;;;;;3.90;3.00;;;14.10;99.90;;;;;;20829143;28;20209;-68
2023/05/11 23:01:13;;;;;;;3.33;2.80;;;14.20;99.90;;;;;;20828624;28;20244;-69
2023/05/11 23:11:16;;;;;;;7.00;2.70;;;14.10;99.90;;;;;;20828053;28;20676;-70
2023/05/11 23:21:17;;;;;;;2.63;2.30;;;14.10;99.90;;;;;;20835922;28;20247;-69
2023/05/11 23:31:19;;;;;;;3.03;2.73;;;14.10;99.90;;;;;;20842347;28;20266;-69
2023/05/11 23:41:21;;;;;;;2.97;2.77;;;13.90;99.90;;;;;;20841650;28;20777;-69
2023/05/11 23:51:23;;;;;;;4.53;3.90;;;13.90;99.90;;;;;;20841163;28;20230;-70
